Huvudsida
METAR-TAF:

METAR-TAF

Flygplatser :

Mafikeng, Sydafrika

latitud: 25-47S, longitud: 025-32E, höjd: 1281 m

Aktuellt väderrapport

Denna rapport gjordes för 1 timme och 23 minuter sedan, klockan 11:00 UTC
Vind 9 kt från nord/nordost
Temperatur 19°C
Fuktighet 37%
Tryck 1032 hPa
Sikt 10 km eller mer
Inga moln under 1 500 m eller inga cumulonimbus

METAR: FAMM 241100Z 03009KT CAVOK 19/04 Q1032 NOSIG

Tid: 14:23 (12:23 UTC)

Väderprognos

Denna rapport gjordes för 3 timmar och 23 minuter sedan, klockan 09:00 UTC
Prognos gäller från 24 kl. 10 UTC till 24 kl. 18 UTC
Vind 3 kt varierande vindriktning
Sikt 10 km eller mer
Spridda moln på en höjd av 4000 ft

TAF: FAMM 240900Z 2410/2418 VRB03KT 9999 SCT040 TX21/2412Z TN12/2418Z

Aktuella väderrapporter och prognoser från 4000 flygplatser (METAR- och TAF-rapporter).

De tillgängliga stationerna syns som gula och röda prickar på kartan.

För musen över prickarna för att se namnen på stationerna.

Klicka sedan för att få väderrapporter och prognoser.

För att ändra kartan: Klicka på de gröna knapparna med ett svart kors på för att zooma in; den gröna knappen med ett streck på för att zooma ut; eller på de gröna pilarna för angränsande kartor.


METAR-TAF: